^^
Station Historical Data
Daily Summary for November 10, 2017 Units:  English    Metric   Both
« Previous Day
Next Day »
Daily Weekly Monthly Yearly Custom
  High: Low: Average:
Temperature: 50.4 °F 23.2 °F 34 °F
Dew Point: 46.6 °F 7.5 °F 20.1 °F
Humidity: 93% 39% 58%
Wind Speed: 9.0mph 0.0mph 3.7mph
Wind Gust: 23.0mph - -
Wind- - SSW
Pressure: 30.52 in 29.94 in -
Precipitation: 0.00 in    
Historical Graphs
 
 
Tabular Data for November 10, 2017
Time Temperature Dew Point Pressure Wind Wind Speed Wind Gust Humidity Rainfall Rate (Hourly) Conditions
00:00 50.4 °F 46.1 °F 29.96 in SW 6.0 mph 14.0 mph 85% 0.00 in RA
00:10 50.1 °F 46.4 °F 29.96 in WSW 5.0 mph 12.0 mph 87% 0.00 in BKN
00:20 49.7 °F 46.6 °F 29.96 in SW 2.0 mph 10.0 mph 89% 0.00 in BKN
00:30 49.0 °F 46.5 °F 29.96 in SW 1.0 mph 9.0 mph 91% 0.00 in BKN
00:40 48.6 °F 46.1 °F 29.96 in SW 3.0 mph 12.0 mph 91% 0.00 in BKN
00:50 48.4 °F 46.2 °F 29.95 in SW 6.0 mph 11.0 mph 92% 0.00 in BKN
00:59 48.2 °F 45.9 °F 29.95 in SW 2.0 mph 10.0 mph 92% 0.00 in BKN
01:10 47.9 °F 45.7 °F 29.95 in SW 2.0 mph 10.0 mph 92% 0.00 in BKN
01:19 47.6 °F 45.4 °F 29.95 in SW 3.0 mph 12.0 mph 92% 0.00 in BKN
01:30 47.5 °F 45.3 °F 29.94 in SW 2.0 mph 9.0 mph 92% 0.00 in BKN
01:40 47.2 °F 45.2 °F 29.94 in SSW 5.0 mph 8.0 mph 93% 0.00 in BKN
01:50 46.9 °F 45.0 °F 29.94 in SW 2.0 mph 10.0 mph 93% 0.00 in BKN
02:00 46.7 °F 44.5 °F 29.94 in SW 3.0 mph 12.0 mph 92% 0.00 in BKN
02:10 46.6 °F 44.4 °F 29.94 in SSW 3.0 mph 12.0 mph 92% 0.00 in CLR
02:20 46.3 °F 44.1 °F 29.94 in SSW 3.0 mph 12.0 mph 92% 0.00 in CLR
02:30 46.0 °F 43.8 °F 29.94 in SW 3.0 mph 7.0 mph 92% 0.00 in CLR
02:40 45.9 °F 43.7 °F 29.94 in SSW 3.0 mph 8.0 mph 92% 0.00 in CLR
02:50 45.6 °F 43.4 °F 29.94 in SW 3.0 mph 6.0 mph 92% 0.00 in CLR
03:00 45.4 °F 42.9 °F 29.94 in SW 2.0 mph 13.0 mph 91% 0.00 in CLR
03:10 45.1 °F 42.6 °F 29.94 in SW 2.0 mph 12.0 mph 91% 0.00 in CLR
03:20 44.9 °F 42.4 °F 29.94 in SW 2.0 mph 10.0 mph 91% 0.00 in CLR
03:30 44.7 °F 42.5 °F 29.95 in SW 2.0 mph 6.0 mph 92% 0.00 in CLR
03:50 44.7 °F 42.5 °F 29.96 in SW 3.0 mph 9.0 mph 92% 0.00 in CLR
03:59 44.2 °F 39.0 °F 29.98 in West 6.0 mph 16.0 mph 82% 0.00 in CLR
04:10 43.7 °F 36.6 °F 29.98 in SSE 2.0 mph 13.0 mph 76% 0.00 in BKN
04:20 43.4 °F 35.7 °F 29.99 in WSW 5.0 mph 12.0 mph 74% 0.00 in BKN
04:30 43.1 °F 35.4 °F 30.00 in ESE 1.0 mph 10.0 mph 74% 0.00 in BKN
04:39 42.8 °F 35.1 °F 30.00 in NNW 7.0 mph 17.0 mph 74% 0.00 in BKN
04:49 42.3 °F 34.6 °F 30.01 in NNW 3.0 mph 9.0 mph 74% 0.00 in BKN
04:59 42.0 °F 34.4 °F 30.01 in NE 6.0 mph 13.0 mph 74% 0.00 in BKN
05:10 41.7 °F 33.3 °F 30.02 in NNW 5.0 mph 18.0 mph 72% 0.00 in BKN
05:20 41.3 °F 32.6 °F 30.02 in NE 7.0 mph 14.0 mph 71% 0.00 in BKN
05:30 40.9 °F 31.9 °F 30.03 in North 6.0 mph 16.0 mph 70% 0.00 in BKN
05:40 40.5 °F 31.5 °F 30.04 in North 2.0 mph 20.0 mph 70% 0.00 in BKN
05:50 40.1 °F 30.4 °F 30.03 in NW 3.0 mph 13.0 mph 68% 0.00 in BKN
06:00 39.8 °F 30.5 °F 30.04 in North 5.0 mph 10.0 mph 69% 0.00 in BKN
06:10 39.3 °F 29.3 °F 30.05 in ENE 3.0 mph 17.0 mph 67% 0.00 in SCT
06:20 38.9 °F 29.6 °F 30.06 in West 5.0 mph 23.0 mph 69% 0.00 in SCT
06:30 38.1 °F 27.0 °F 30.09 in NNE 7.0 mph 21.0 mph 64% 0.00 in SCT
06:40 36.9 °F 25.1 °F 30.10 in NNW 5.0 mph 17.0 mph 62% 0.00 in SCT
06:50 36.0 °F 23.1 °F 30.11 in NNE 3.0 mph 15.0 mph 59% 0.00 in SCT
07:00 35.5 °F 21.8 °F 30.12 in North 5.0 mph 21.0 mph 57% 0.00 in SCT
07:10 35.1 °F 21.4 °F 30.12 in SW 3.0 mph 10.0 mph 57% 0.00 in SCT
07:19 34.9 °F 20.7 °F 30.13 in North 6.0 mph 16.0 mph 56% 0.00 in SCT
07:30 34.4 °F 19.5 °F 30.14 in ENE 2.0 mph 20.0 mph 54% 0.00 in SCT
07:40 34.2 °F 18.4 °F 30.15 in NNE 6.0 mph 18.0 mph 52% 0.00 in SCT
07:50 34.0 °F 17.3 °F 30.16 in NNE 7.0 mph 16.0 mph 50% 0.00 in SCT
07:59 34.1 °F 18.3 °F 30.16 in NNE 2.0 mph 21.0 mph 52% 0.00 in SCT
08:10 33.9 °F 17.2 °F 30.17 in North 1.0 mph 12.0 mph 50% 0.00 in FEW
08:20 34.0 °F 17.3 °F 30.18 in NNW 5.0 mph 17.0 mph 50% 0.00 in FEW
08:30 34.1 °F 16.9 °F 30.18 in NNW 5.0 mph 20.0 mph 49% 0.00 in FEW
08:40 34.3 °F 16.1 °F 30.19 in NNE 6.0 mph 22.0 mph 47% 0.00 in FEW
08:50 34.4 °F 16.7 °F 30.18 in WNW 6.0 mph 23.0 mph 48% 0.00 in FEW
08:59 34.7 °F 17.5 °F 30.19 in NNW 6.0 mph 20.0 mph 49% 0.00 in FEW
09:10 35.4 °F 19.0 °F 30.19 in NNW 2.0 mph 12.0 mph 51% 0.00 in FEW
09:20 35.5 °F 17.7 °F 30.20 in NNW 5.0 mph 14.0 mph 48% 0.00 in FEW
09:30 36.0 °F 19.1 °F 30.20 in NNW 5.0 mph 14.0 mph 50% 0.00 in FEW
09:40 35.5 °F 19.1 °F 30.20 in NNE 5.0 mph 15.0 mph 51% 0.00 in FEW
09:50 34.9 °F 20.4 °F 30.21 in NW 6.0 mph 14.0 mph 55% 0.00 in FEW
10:00 34.6 °F 21.7 °F 30.21 in SSW 3.0 mph 16.0 mph 59% 0.00 in FEW
10:10 34.1 °F 20.4 °F 30.22 in NNW 6.0 mph 15.0 mph 57% 0.00 in BKN
10:20 33.5 °F 15.9 °F 30.23 in NNE 6.0 mph 23.0 mph 48% 0.00 in BKN
10:30 33.7 °F 17.0 °F 30.23 in NNE 3.0 mph 17.0 mph 50% 0.00 in BKN
10:40 32.9 °F 14.4 °F 30.23 in NNW 5.0 mph 15.0 mph 46% 0.00 in BKN
10:50 32.5 °F 14.5 °F 30.23 in NNW 5.0 mph 14.0 mph 47% 0.00 in BKN
11:00 32.8 °F 14.8 °F 30.22 in WSW 2.0 mph 17.0 mph 47% 0.00 in BKN
11:10 33.1 °F 15.5 °F 30.23 in ESE 2.0 mph 12.0 mph 48% 0.00 in BKN
11:20 33.3 °F 15.2 °F 30.23 in North 5.0 mph 12.0 mph 47% 0.00 in BKN
11:30 33.6 °F 15.9 °F 30.24 in NNE 5.0 mph 15.0 mph 48% 0.00 in BKN
11:40 33.2 °F 16.1 °F 30.24 in NNW 3.0 mph 12.0 mph 49% 0.00 in BKN
11:50 32.9 °F 14.8 °F 30.25 in NW 8.0 mph 16.0 mph 47% 0.00 in BKN
12:00 32.4 °F 14.4 °F 30.24 in East 3.0 mph 21.0 mph 47% 0.00 in BKN
12:10 32.6 °F 13.6 °F 30.24 in NNW 5.0 mph 18.0 mph 45% 0.00 in SCT
12:20 33.3 °F 15.2 °F 30.25 in SSW 6.0 mph 13.0 mph 47% 0.00 in SCT
12:29 34.2 °F 15.1 °F 30.25 in NNW 8.0 mph 14.0 mph 45% 0.00 in SCT
12:40 33.1 °F 12.5 °F 30.25 in NNW 7.0 mph 17.0 mph 42% 0.00 in SCT
12:50 33.1 °F 11.9 °F 30.25 in NE 7.0 mph 13.0 mph 41% 0.00 in SCT
13:00 33.3 °F 11.5 °F 30.26 in NW 5.0 mph 13.0 mph 40% 0.00 in SCT
13:10 33.6 °F 11.2 °F 30.26 in NNW 8.0 mph 16.0 mph 39% 0.00 in FEW
13:20 34.0 °F 12.7 °F 30.26 in NNW 5.0 mph 13.0 mph 41% 0.00 in FEW
13:30 33.5 °F 12.3 °F 30.26 in NW 5.0 mph 14.0 mph 41% 0.00 in FEW
13:40 33.2 °F 12.0 °F 30.26 in NNE 5.0 mph 13.0 mph 41% 0.00 in FEW
13:50 33.3 °F 12.1 °F 30.27 in NW 5.0 mph 14.0 mph 41% 0.00 in FEW
13:59 33.8 °F 12.0 °F 30.27 in NW 5.0 mph 15.0 mph 40% 0.00 in FEW
14:09 33.6 °F 12.4 °F 30.27 in NNW 3.0 mph 15.0 mph 41% 0.00 in FEW
14:20 33.3 °F 12.7 °F 30.28 in NW 3.0 mph 13.0 mph 42% 0.00 in FEW
14:30 32.9 °F 12.8 °F 30.28 in WNW 3.0 mph 15.0 mph 43% 0.00 in FEW
14:40 33.1 °F 14.5 °F 30.28 in North 3.0 mph 12.0 mph 46% 0.00 in FEW
14:50 32.8 °F 11.1 °F 30.29 in NNW 7.0 mph 15.0 mph 40% 0.00 in FEW
15:00 32.3 °F 11.7 °F 30.30 in North 2.0 mph 16.0 mph 42% 0.00 in FEW
15:10 32.0 °F 12.0 °F 30.30 in NNW 8.0 mph 21.0 mph 43% 0.00 in FEW
15:20 31.5 °F 9.9 °F 30.30 in NW 6.0 mph 23.0 mph 40% 0.00 in FEW
15:30 31.6 °F 10.0 °F 30.31 in NW 6.0 mph 17.0 mph 40% 0.00 in FEW
15:40 31.7 °F 10.7 °F 30.32 in NNE 3.0 mph 13.0 mph 41% 0.00 in FEW
15:50 31.4 °F 10.4 °F 30.32 in NNE 7.0 mph 20.0 mph 41% 0.00 in FEW
15:59 30.8 °F 9.8 °F 30.33 in WNW 3.0 mph 15.0 mph 41% 0.00 in FEW
16:10 30.6 °F 10.2 °F 30.34 in NNE 3.0 mph 17.0 mph 42% 0.00 in FEW
16:20 29.9 °F 7.9 °F 30.35 in NNW 5.0 mph 20.0 mph 39% 0.00 in FEW
16:29 29.2 °F 8.4 °F 30.36 in North 9.0 mph 18.0 mph 41% 0.00 in FEW
16:40 28.8 °F 8.6 °F 30.36 in Calm   12.0 mph 42% 0.00 in FEW
16:49 28.6 °F 8.9 °F 30.37 in NNE 8.0 mph 14.0 mph 43% 0.00 in FEW
17:00 28.2 °F 7.5 °F 30.38 in NNE 5.0 mph 12.0 mph 41% 0.00 in FEW
17:10 28.0 °F 8.4 °F 30.39 in NNW 5.0 mph 15.0 mph 43% 0.00 in CLR
17:20 27.8 °F 8.2 °F 30.39 in NNE 3.0 mph 12.0 mph 43% 0.00 in CLR
17:29 27.7 °F 9.1 °F 30.40 in NNE 2.0 mph 13.0 mph 45% 0.00 in CLR
17:40 27.5 °F 8.9 °F 30.41 in NNW 6.0 mph 15.0 mph 45% 0.00 in CLR
17:50 27.3 °F 9.7 °F 30.42 in NNE 1.0 mph 8.0 mph 47% 0.00 in CLR
18:00 27.1 °F 10.0 °F 30.42 in NE 3.0 mph 12.0 mph 48% 0.00 in CLR
18:10 27.0 °F 9.9 °F 30.43 in NNE 2.0 mph 10.0 mph 48% 0.00 in CLR
18:20 26.7 °F 8.7 °F 30.44 in North 5.0 mph 16.0 mph 46% 0.00 in CLR
18:29 26.4 °F 8.8 °F 30.44 in NE 3.0 mph 12.0 mph 47% 0.00 in CLR
18:40 26.1 °F 8.6 °F 30.45 in North 3.0 mph 13.0 mph 47% 0.00 in CLR
18:50 25.9 °F 8.9 °F 30.46 in ENE 3.0 mph 10.0 mph 48% 0.00 in CLR
18:59 25.7 °F 9.2 °F 30.46 in ENE 2.0 mph 8.0 mph 49% 0.00 in CLR
19:10 25.4 °F 8.4 °F 30.47 in NE 2.0 mph 10.0 mph 48% 0.00 in CLR
19:20 25.3 °F 9.2 °F 30.48 in NE 2.0 mph 9.0 mph 50% 0.00 in CLR
19:30 25.1 °F 8.6 °F 30.48 in NE 3.0 mph 13.0 mph 49% 0.00 in CLR
19:39 25.0 °F 9.0 °F 30.48 in NNW 5.0 mph 12.0 mph 50% 0.00 in CLR
19:50 24.7 °F 8.7 °F 30.48 in NNW 5.0 mph 12.0 mph 50% 0.00 in CLR
19:59 24.7 °F 8.2 °F 30.48 in NNW 3.0 mph 15.0 mph 49% 0.00 in CLR
20:09 24.6 °F 9.0 °F 30.49 in North 5.0 mph 12.0 mph 51% 0.00 in CLR
20:20 24.5 °F 8.9 °F 30.49 in NW 2.0 mph 12.0 mph 51% 0.00 in CLR
20:30 24.3 °F 9.6 °F 30.49 in NW 1.0 mph 6.0 mph 53% 0.00 in CLR
20:39 24.0 °F 8.9 °F 30.50 in NNE 2.0 mph 9.0 mph 52% 0.00 in CLR
20:49 23.9 °F 9.2 °F 30.50 in NNE 1.0 mph 8.0 mph 53% 0.00 in CLR
21:00 23.7 °F 9.0 °F 30.50 in North 2.0 mph 12.0 mph 53% 0.00 in CLR
21:10 23.7 °F 10.3 °F 30.50 in Calm   6.0 mph 56% 0.00 in CLR
21:20 23.8 °F 10.0 °F 30.51 in NNE 1.0 mph 10.0 mph 55% 0.00 in CLR
21:30 23.6 °F 9.4 °F 30.51 in North 1.0 mph 8.0 mph 54% 0.00 in CLR
21:40 23.6 °F 9.8 °F 30.51 in NNW 2.0 mph 8.0 mph 55% 0.00 in CLR
21:50 23.4 °F 10.0 °F 30.51 in NNE 2.0 mph 6.0 mph 56% 0.00 in CLR
22:00 23.4 °F 10.0 °F 30.51 in NNW 1.0 mph 5.0 mph 56% 0.00 in CLR
22:09 23.4 °F 10.4 °F 30.51 in Calm   10.0 mph 57% 0.00 in CLR
22:20 23.5 °F 10.1 °F 30.51 in North 1.0 mph 13.0 mph 56% 0.00 in CLR
22:30 23.6 °F 10.2 °F 30.52 in North 5.0 mph 13.0 mph 56% 0.00 in CLR
22:40 23.6 °F 10.2 °F 30.51 in North 1.0 mph 8.0 mph 56% 0.00 in CLR
22:50 23.6 °F 10.6 °F 30.51 in NNW 1.0 mph 8.0 mph 57% 0.00 in CLR
23:00 23.6 °F 11.0 °F 30.51 in NNE 2.0 mph 9.0 mph 58% 0.00 in CLR
23:09 23.5 °F 10.5 °F 30.51 in NE 1.0 mph 7.0 mph 57% 0.00 in CLR
23:20 23.3 °F 10.7 °F 30.51 in NNE 1.0 mph 7.0 mph 58% 0.00 in CLR
23:30 23.2 °F 11.0 °F 30.51 in Calm   4.0 mph 59% 0.00 in CLR
23:40 23.2 °F 11.4 °F 30.51 in Calm   6.0 mph 60% 0.00 in CLR
23:50 23.2 °F 11.4 °F 30.52 in Calm   6.0 mph 60% 0.00 in CLR
TarryTown NY Weather
Compliments of Weather Underground - 1.75 mb